Terminal Aerodrome Forecast
Issued by NWS

Current Version | Previous Version | Graphics & Text | Print | Product List | Glossary On
Versions: 1 2 3 4 5 6 7 8 9 10 11 12 13 14 15 16 17 18 19 20 21 22 23 24 25 26 27 28 29 30 31 32 33 34 35 36 37 38 39 40 41 42 43 44 45 46 47
000
FTUS41 KRNK 091720
TAFLWB
TAF
KLWB 091720Z 0918/1018 26008KT P6SM VCTS BKN040CB
     FM092300 27003KT P6SM SCT035 BKN100
     FM100300 00000KT 3SM BR SCT100
     FM100600 00000KT 1/2SM FG BKN001
     FM101400 VRB03KT P6SM SCT250=

USA.gov is the U.S. government's official web portal to all federal, state and local government web resources and services.